Terminal Aerodrome Forecast
Issued by NWS

Home | Current Version | Previous Version | Graphics & Text | Print | Product List | Glossary On
Versions: 1 2 3 4 5 6 7 8 9 10 11 12 13
700
FTUS45 KGGW 240522
TAFSDY
TAF
KSDY 240522Z 2406/2506 VRB03KT 6SM -RA SCT020 OVC040
     FM241100 35005KT P6SM VCSH OVC020
     FM242200 01007KT P6SM BKN035=

USA.gov is the U.S. government's official web portal to all federal, state and local government web resources and services.